createdAt,value
2023-04-28T00:00:19.032Z,11.39
2023-04-28T00:03:04.661Z,11.40
2023-04-28T00:05:49.750Z,11.32
2023-04-28T00:08:35.263Z,11.39
2023-04-28T00:11:20.725Z,11.39
2023-04-28T00:14:06.233Z,11.30
2023-04-28T00:16:51.727Z,11.40
2023-04-28T00:19:36.794Z,11.40
2023-04-28T00:22:22.027Z,11.44
2023-04-28T00:25:08.184Z,11.44
2023-04-28T00:27:53.148Z,11.41
2023-04-28T00:30:38.486Z,11.44
2023-04-28T00:33:23.452Z,11.45
2023-04-28T00:36:09.440Z,11.45
2023-04-28T00:38:54.475Z,11.40
2023-04-28T00:41:42.577Z,11.47
2023-04-28T00:44:27.822Z,11.48
2023-04-28T00:47:13.323Z,11.41
2023-04-28T00:49:59.731Z,11.48
2023-04-28T00:52:45.191Z,11.48
2023-04-28T00:55:34.892Z,11.50
2023-04-28T00:58:19.834Z,11.51
2023-04-28T01:01:06.764Z,11.49
2023-04-28T01:03:51.915Z,11.55
2023-04-28T01:06:38.422Z,11.56
2023-04-28T01:09:23.711Z,11.58
2023-04-28T01:12:08.891Z,11.57
2023-04-28T01:14:54.287Z,11.53
2023-04-28T01:17:39.810Z,11.59
2023-04-28T01:20:24.991Z,11.58
2023-04-28T01:23:13.501Z,11.54
2023-04-28T01:25:58.536Z,11.60
2023-04-28T01:28:43.571Z,11.60
2023-04-28T01:31:30.899Z,11.60
2023-04-28T01:34:16.340Z,11.63
2023-04-28T01:37:01.804Z,11.68
2023-04-28T01:39:47.018Z,11.75
2023-04-28T01:42:36.936Z,11.76
2023-04-28T01:45:22.297Z,11.84
2023-04-28T01:48:07.371Z,11.85
2023-04-28T01:50:52.718Z,11.82
2023-04-28T01:53:37.463Z,11.85
2023-04-28T01:56:22.505Z,11.87
2023-04-28T01:59:07.771Z,11.89
2023-04-28T02:01:52.730Z,11.90
2023-04-28T02:04:39.047Z,11.94
2023-04-28T02:07:24.320Z,11.91
2023-04-28T02:10:09.954Z,11.91
2023-04-28T02:12:55.161Z,11.89
2023-04-28T02:15:43.823Z,11.90
2023-04-28T02:18:31.193Z,11.97
2023-04-28T02:21:16.197Z,11.99
2023-04-28T02:24:01.386Z,11.97
2023-04-28T02:26:46.425Z,11.99
2023-04-28T02:29:31.964Z,11.99
2023-04-28T02:32:16.970Z,12.00
2023-04-28T02:35:02.143Z,12.01
2023-04-28T02:37:47.466Z,12.03
2023-04-28T02:40:33.022Z,11.97
2023-04-28T02:43:18.288Z,11.97
2023-04-28T02:46:04.788Z,11.97
2023-04-28T02:48:49.696Z,11.96
2023-04-28T02:51:34.737Z,11.96
2023-04-28T02:54:27.554Z,11.97
2023-04-28T02:57:13.132Z,11.99
2023-04-28T02:59:58.130Z,11.99
2023-04-28T03:02:43.555Z,11.94
2023-04-28T03:05:28.566Z,11.94
2023-04-28T03:08:13.816Z,11.91
2023-04-28T03:10:58.757Z,11.92
2023-04-28T03:13:43.862Z,11.93
2023-04-28T03:16:29.243Z,11.95
2023-04-28T03:19:14.332Z,11.87
2023-04-28T03:21:59.296Z,11.89
2023-04-28T03:24:44.252Z,11.88
2023-04-28T03:27:29.426Z,11.86
2023-04-28T03:30:14.762Z,11.85
2023-04-28T03:32:59.949Z,11.84
2023-04-28T03:35:44.945Z,11.84
2023-04-28T03:38:29.977Z,11.82
2023-04-28T03:41:15.281Z,11.80
2023-04-28T03:44:00.559Z,11.74
2023-04-28T03:46:45.944Z,11.68
2023-04-28T03:49:31.017Z,11.74
2023-04-28T03:52:16.271Z,11.72
2023-04-28T03:55:01.660Z,11.77
2023-04-28T03:57:46.848Z,11.78
2023-04-28T04:00:31.995Z,11.77
2023-04-28T04:03:17.407Z,11.70
2023-04-28T04:06:03.138Z,11.69
2023-04-28T04:08:48.524Z,11.56
2023-04-28T04:11:33.721Z,11.62
2023-04-28T04:14:19.015Z,11.61
2023-04-28T04:17:04.244Z,11.61
2023-04-28T04:19:49.232Z,11.61
2023-04-28T04:22:34.004Z,11.55
2023-04-28T04:25:19.748Z,11.57
2023-04-28T04:28:06.192Z,11.53
2023-04-28T04:30:51.386Z,11.54
2023-04-28T04:33:37.631Z,11.52
2023-04-28T04:36:22.733Z,11.48
2023-04-28T04:39:07.958Z,11.41
2023-04-28T04:41:52.927Z,11.34
2023-04-28T04:44:37.845Z,11.40
2023-04-28T04:47:22.985Z,11.37
2023-04-28T04:50:08.730Z,11.29
2023-04-28T04:52:56.554Z,11.33
2023-04-28T04:55:41.761Z,11.33
2023-04-28T04:58:27.148Z,11.32
2023-04-28T05:01:12.415Z,11.28
2023-04-28T05:03:57.821Z,11.25
2023-04-28T05:06:43.145Z,11.32
2023-04-28T05:09:29.796Z,11.34
2023-04-28T05:12:15.064Z,11.36
2023-04-28T05:15:00.432Z,11.40
2023-04-28T05:17:45.682Z,11.34
2023-04-28T05:20:30.860Z,11.46
2023-04-28T05:23:16.763Z,11.47
2023-04-28T05:26:03.142Z,11.50
2023-04-28T05:28:48.463Z,11.50
2023-04-28T05:31:33.679Z,11.51
2023-04-28T05:34:19.137Z,11.54
2023-04-28T05:37:04.482Z,11.47
2023-04-28T05:39:49.713Z,11.46
2023-04-28T05:42:34.676Z,11.45
2023-04-28T05:45:19.591Z,11.54
2023-04-28T05:48:05.213Z,11.55
2023-04-28T05:50:50.862Z,11.57
2023-04-28T05:53:35.936Z,11.49
2023-04-28T05:56:21.325Z,11.59
2023-04-28T05:59:06.569Z,11.61
2023-04-28T06:01:51.825Z,11.64
2023-04-28T06:04:38.591Z,11.64
2023-04-28T06:07:23.928Z,11.66
2023-04-28T06:10:09.940Z,11.62
2023-04-28T06:12:55.223Z,11.64
2023-04-28T06:15:40.196Z,11.72
2023-04-28T06:18:25.140Z,11.76
2023-04-28T06:21:11.007Z,11.81
2023-04-28T06:23:56.533Z,11.85
2023-04-28T06:26:41.672Z,11.84
2023-04-28T06:29:27.848Z,11.86
2023-04-28T06:32:12.802Z,11.88
2023-04-28T06:34:58.624Z,11.95
2023-04-28T06:37:44.252Z,12.08
2023-04-28T06:40:29.400Z,12.18
2023-04-28T06:43:14.455Z,12.18
2023-04-28T06:45:59.388Z,12.29
2023-04-28T06:48:45.002Z,12.38
2023-04-28T06:51:32.925Z,12.43
2023-04-28T06:54:18.646Z,12.50
2023-04-28T06:57:04.052Z,12.55
2023-04-28T06:59:49.252Z,12.67
2023-04-28T07:02:35.303Z,12.79
2023-04-28T07:05:20.236Z,12.92
2023-04-28T07:08:05.446Z,12.91
2023-04-28T07:10:50.578Z,12.86
2023-04-28T07:13:35.604Z,12.79
2023-04-28T07:16:21.980Z,12.86
2023-04-28T07:19:06.900Z,12.85
2023-04-28T07:21:51.890Z,12.80
2023-04-28T07:24:37.476Z,12.95
2023-04-28T07:27:23.244Z,12.89
2023-04-28T07:30:19.287Z,12.94
2023-04-28T07:33:12.024Z,13.11
2023-04-28T07:35:56.918Z,13.16
2023-04-28T07:38:42.213Z,13.20
2023-04-28T07:41:27.914Z,13.28
2023-04-28T07:44:13.209Z,13.31
2023-04-28T07:47:00.076Z,13.33
2023-04-28T07:49:45.511Z,13.40
2023-04-28T07:52:31.821Z,13.43
2023-04-28T07:55:17.066Z,13.39
2023-04-28T07:58:02.621Z,13.34
2023-04-28T08:00:47.837Z,13.29
2023-04-28T08:03:33.053Z,13.37
2023-04-28T08:06:19.055Z,13.40
2023-04-28T08:09:06.033Z,13.36
2023-04-28T08:11:51.382Z,13.40
2023-04-28T08:14:36.623Z,13.44
2023-04-28T08:17:21.824Z,13.50
2023-04-28T08:20:07.673Z,13.56
2023-04-28T08:22:52.894Z,13.68
2023-04-28T08:25:38.229Z,13.77
2023-04-28T08:28:23.241Z,13.85
2023-04-28T08:31:09.061Z,13.88
2023-04-28T08:33:55.628Z,13.87
2023-04-28T08:36:40.963Z,13.82
2023-04-28T08:39:27.980Z,13.99
2023-04-28T08:42:13.438Z,14.16
2023-04-28T08:45:01.923Z,14.23
2023-04-28T08:47:49.890Z,14.19
2023-04-28T08:50:37.950Z,14.19
2023-04-28T08:53:25.855Z,14.32
2023-04-28T08:56:13.768Z,14.48
2023-04-28T08:59:06.253Z,14.51
2023-04-28T09:01:51.884Z,14.56
2023-04-28T09:04:37.402Z,14.34
2023-04-28T09:07:23.151Z,14.60
2023-04-28T09:10:20.781Z,14.76
2023-04-28T09:13:06.184Z,14.87
2023-04-28T09:15:51.764Z,14.84
2023-04-28T09:18:36.756Z,14.59
2023-04-28T09:21:21.915Z,14.55
2023-04-28T09:24:07.177Z,14.38
2023-04-28T09:26:54.130Z,14.30
2023-04-28T09:29:53.008Z,14.22
2023-04-28T09:32:37.954Z,14.25
2023-04-28T09:35:47.869Z,14.47
2023-04-28T09:38:44.010Z,14.72
2023-04-28T09:41:43.386Z,14.84
2023-04-28T09:44:28.320Z,15.24
2023-04-28T09:47:23.579Z,15.35
2023-04-28T09:50:12.728Z,15.36
2023-04-28T09:52:59.159Z,15.26
2023-04-28T09:55:46.803Z,15.20
2023-04-28T09:58:34.278Z,15.33
2023-04-28T10:01:19.433Z,15.36
2023-04-28T10:04:06.460Z,15.35
2023-04-28T10:06:51.885Z,15.33
2023-04-28T10:09:38.155Z,15.36
2023-04-28T10:12:24.501Z,15.52
2023-04-28T10:15:10.710Z,15.69
2023-04-28T10:17:56.532Z,15.87
2023-04-28T10:20:58.113Z,15.97
2023-04-28T10:23:53.882Z,15.99
2023-04-28T10:27:04.491Z,16.20
2023-04-28T10:29:49.856Z,16.14
2023-04-28T10:32:35.024Z,15.87
2023-04-28T10:35:32.535Z,15.54
2023-04-28T10:38:19.426Z,15.22
2023-04-28T10:41:04.611Z,15.02
2023-04-28T10:43:50.408Z,14.98
2023-04-28T10:47:04.321Z,15.11
2023-04-28T10:49:58.178Z,15.18
2023-04-28T10:52:46.218Z,15.31
2023-04-28T10:55:36.531Z,15.56
2023-04-28T10:58:27.870Z,16.05
2023-04-28T11:01:19.540Z,16.19
2023-04-28T11:04:13.481Z,16.13
2023-04-28T11:07:19.878Z,16.16
2023-04-28T11:10:05.429Z,16.08
2023-04-28T11:13:26.172Z,16.00
2023-04-28T11:16:17.473Z,15.92
2023-04-28T11:19:04.983Z,16.16
2023-04-28T11:21:51.861Z,16.00
2023-04-28T11:24:37.288Z,15.84
2023-04-28T11:27:27.043Z,15.82
2023-04-28T11:30:22.689Z,15.77
2023-04-28T11:33:09.541Z,15.74
2023-04-28T11:35:54.770Z,15.57
2023-04-28T11:38:44.131Z,15.40
2023-04-28T11:41:29.256Z,15.26
2023-04-28T11:44:19.787Z,15.42
2023-04-28T11:47:06.591Z,15.46
2023-04-28T11:49:52.024Z,15.51
2023-04-28T11:52:37.376Z,15.64
2023-04-28T11:55:22.395Z,15.85
2023-04-28T11:58:24.009Z,16.15
2023-04-28T12:01:15.325Z,16.26
2023-04-28T12:04:00.751Z,16.24
2023-04-28T12:06:46.060Z,16.15
2023-04-28T12:09:32.574Z,16.05
2023-04-28T12:12:45.184Z,15.96
2023-04-28T12:15:41.468Z,15.82
2023-04-28T12:18:27.608Z,15.90
2023-04-28T12:21:21.548Z,16.38
2023-04-28T12:24:21.001Z,16.55
2023-04-28T12:27:21.970Z,16.56
2023-04-28T12:30:19.579Z,16.42
2023-04-28T12:33:05.030Z,16.38
2023-04-28T12:35:50.435Z,16.64
2023-04-28T12:38:35.733Z,16.88
2023-04-28T12:41:20.953Z,17.27
2023-04-28T12:44:06.215Z,17.20
2023-04-28T12:46:52.122Z,17.06
2023-04-28T12:49:37.678Z,17.01
2023-04-28T12:52:22.766Z,16.85
2023-04-28T12:55:08.578Z,17.37
2023-04-28T12:57:54.668Z,17.67
2023-04-28T13:00:41.801Z,18.30
2023-04-28T13:03:27.906Z,18.27
2023-04-28T13:06:13.031Z,18.20
2023-04-28T13:08:57.917Z,18.46
2023-04-28T13:11:43.392Z,18.24
2023-04-28T13:14:29.011Z,18.34
2023-04-28T13:17:14.370Z,18.55
2023-04-28T13:20:01.233Z,18.70
2023-04-28T13:22:46.603Z,18.71
2023-04-28T13:25:31.855Z,18.57
2023-04-28T13:28:17.204Z,19.02
2023-04-28T13:31:02.378Z,19.41
2023-04-28T13:33:47.271Z,19.24
2023-04-28T13:36:33.145Z,19.17
2023-04-28T13:39:20.300Z,19.14
2023-04-28T13:42:07.137Z,19.20
2023-04-28T13:44:52.517Z,19.67
2023-04-28T13:47:37.731Z,19.70
2023-04-28T13:50:22.972Z,19.87
2023-04-28T13:53:08.397Z,19.82
2023-04-28T13:55:53.966Z,20.40
2023-04-28T13:58:39.422Z,20.80
2023-04-28T14:01:25.275Z,20.70
2023-04-28T14:04:11.094Z,20.97
2023-04-28T14:06:56.912Z,20.93
2023-04-28T14:09:42.481Z,20.61
2023-04-28T14:12:28.553Z,20.31
2023-04-28T14:15:13.490Z,20.18
2023-04-28T14:17:58.854Z,20.05
2023-04-28T14:20:44.512Z,20.02
2023-04-28T14:23:35.929Z,19.93
2023-04-28T14:26:21.007Z,20.00
2023-04-28T14:29:06.423Z,20.02
2023-04-28T14:31:51.863Z,19.86
2023-04-28T14:34:37.565Z,19.80
2023-04-28T14:37:22.686Z,19.71
2023-04-28T14:40:08.732Z,19.56
2023-04-28T14:42:53.950Z,19.56
2023-04-28T14:45:38.928Z,19.68
2023-04-28T14:48:24.419Z,19.73
2023-04-28T14:51:10.368Z,19.94
2023-04-28T14:53:55.561Z,19.91
2023-04-28T14:56:40.612Z,19.70
2023-04-28T14:59:26.234Z,19.77
2023-04-28T15:02:11.911Z,19.78
2023-04-28T15:04:57.468Z,19.56
2023-04-28T15:07:42.838Z,19.83
2023-04-28T15:10:39.458Z,20.07
2023-04-28T15:13:25.355Z,20.11
2023-04-28T15:16:10.812Z,19.92
2023-04-28T15:18:55.960Z,19.91
2023-04-28T15:21:41.693Z,20.03
2023-04-28T15:24:26.525Z,19.62
2023-04-28T15:27:11.728Z,19.39
2023-04-28T15:29:57.358Z,19.34
2023-04-28T15:32:43.242Z,19.72
2023-04-28T15:35:28.790Z,19.73
2023-04-28T15:38:13.931Z,19.57
2023-04-28T15:40:59.176Z,19.74
2023-04-28T15:43:46.087Z,19.55
2023-04-28T15:46:32.106Z,19.38
2023-04-28T15:49:17.362Z,19.28
2023-04-28T15:52:02.609Z,19.33
2023-04-28T15:54:47.786Z,19.38
2023-04-28T15:57:32.865Z,19.43
2023-04-28T16:00:18.612Z,19.58
2023-04-28T16:03:04.399Z,19.55
2023-04-28T16:05:49.758Z,19.32
2023-04-28T16:08:35.575Z,19.44
2023-04-28T16:11:21.194Z,19.51
2023-04-28T16:14:06.431Z,19.61
2023-04-28T16:16:51.904Z,19.55
2023-04-28T16:19:38.218Z,19.57
2023-04-28T16:22:25.309Z,19.54
2023-04-28T16:25:12.276Z,19.36
2023-04-28T16:27:57.621Z,19.24
2023-04-28T16:30:43.332Z,19.28
2023-04-28T16:33:28.478Z,19.35
2023-04-28T16:36:13.487Z,19.13
2023-04-28T16:38:58.716Z,19.06
2023-04-28T16:41:44.053Z,18.97
2023-04-28T16:44:30.471Z,18.95
2023-04-28T16:47:16.020Z,18.88
2023-04-28T16:50:01.001Z,18.70
2023-04-28T16:52:46.403Z,18.68
2023-04-28T16:55:31.682Z,18.67
2023-04-28T16:58:17.068Z,18.62
2023-04-28T17:01:02.382Z,18.52
2023-04-28T17:03:50.708Z,18.50
2023-04-28T17:06:36.000Z,18.41
2023-04-28T17:09:22.326Z,18.35
2023-04-28T17:12:07.777Z,18.36
2023-04-28T17:14:53.095Z,18.34
2023-04-28T17:17:38.692Z,18.29
2023-04-28T17:20:23.584Z,18.34
2023-04-28T17:23:08.973Z,18.39
2023-04-28T17:25:54.288Z,18.39
2023-04-28T17:28:40.868Z,18.35
2023-04-28T17:31:27.229Z,18.41
2023-04-28T17:34:12.668Z,18.39
2023-04-28T17:36:58.103Z,18.37
2023-04-28T17:39:43.521Z,18.35
2023-04-28T17:42:30.990Z,18.28
2023-04-28T17:45:16.597Z,18.16
2023-04-28T17:48:01.660Z,18.13
2023-04-28T17:50:46.918Z,18.12
2023-04-28T17:53:31.995Z,18.05
2023-04-28T17:56:17.108Z,17.99
2023-04-28T17:59:02.170Z,17.86
2023-04-28T18:01:47.142Z,17.88
2023-04-28T18:04:32.739Z,17.83
2023-04-28T18:07:18.079Z,17.82
2023-04-28T18:10:03.685Z,17.77
2023-04-28T18:12:48.498Z,17.63
2023-04-28T18:15:33.383Z,17.63
2023-04-28T18:18:19.558Z,17.61
2023-04-28T18:21:04.707Z,17.49
2023-04-28T18:23:49.539Z,17.43
2023-04-28T18:26:34.769Z,17.48
2023-04-28T18:29:20.410Z,17.39
2023-04-28T18:32:05.649Z,17.40
2023-04-28T18:34:50.987Z,17.32
2023-04-28T18:37:37.133Z,17.26
2023-04-28T18:40:22.722Z,17.29
2023-04-28T18:43:10.325Z,17.27
2023-04-28T18:45:55.531Z,17.15
2023-04-28T18:48:40.850Z,17.16
2023-04-28T18:51:26.188Z,17.04
2023-04-28T18:54:11.558Z,17.02
2023-04-28T18:56:57.304Z,16.95
2023-04-28T18:59:42.597Z,16.94
2023-04-28T19:02:27.898Z,16.86
2023-04-28T19:05:13.481Z,16.83
2023-04-28T19:07:58.838Z,16.83
2023-04-28T19:10:43.782Z,16.80
2023-04-28T19:13:28.723Z,16.75
2023-04-28T19:16:13.731Z,16.69
2023-04-28T19:18:58.725Z,16.55
2023-04-28T19:21:44.502Z,16.58
2023-04-28T19:24:29.699Z,16.55
2023-04-28T19:27:15.003Z,16.48
2023-04-28T19:30:01.265Z,16.40
2023-04-28T19:32:46.649Z,16.26
2023-04-28T19:35:31.613Z,16.20
2023-04-28T19:38:18.102Z,16.19
2023-04-28T19:41:03.358Z,16.13
2023-04-28T19:43:48.647Z,16.09
2023-04-28T19:46:33.848Z,16.04
2023-04-28T19:49:19.378Z,15.99
2023-04-28T19:52:05.382Z,15.85
2023-04-28T19:54:51.488Z,15.80
2023-04-28T19:57:37.177Z,15.74
2023-04-28T20:00:24.289Z,15.73
2023-04-28T20:03:09.723Z,15.63
2023-04-28T20:05:55.386Z,15.65
2023-04-28T20:08:40.438Z,15.59
2023-04-28T20:11:25.586Z,15.55
2023-04-28T20:14:10.779Z,15.48
2023-04-28T20:16:56.337Z,15.28
2023-04-28T20:19:41.720Z,15.07
2023-04-28T20:22:27.178Z,14.91
2023-04-28T20:25:12.639Z,14.83
2023-04-28T20:27:58.028Z,14.74
2023-04-28T20:30:43.017Z,14.68
2023-04-28T20:33:28.688Z,14.54
2023-04-28T20:36:13.731Z,14.40
2023-04-28T20:38:59.258Z,14.41
2023-04-28T20:41:44.525Z,14.37
2023-04-28T20:44:29.709Z,14.31
2023-04-28T20:47:14.694Z,14.24
2023-04-28T20:50:00.373Z,14.15
2023-04-28T20:52:45.688Z,13.98
2023-04-28T20:55:30.855Z,14.05
2023-04-28T20:58:16.220Z,14.07
2023-04-28T21:01:01.823Z,13.94
2023-04-28T21:03:47.087Z,13.86
2023-04-28T21:06:32.180Z,13.78
2023-04-28T21:09:17.592Z,13.72
2023-04-28T21:12:02.823Z,13.61
2023-04-28T21:14:48.425Z,13.58
2023-04-28T21:17:33.730Z,13.50
2023-04-28T21:20:19.006Z,13.41
2023-04-28T21:23:04.322Z,13.37
2023-04-28T21:25:49.500Z,13.35
2023-04-28T21:28:35.770Z,13.33
2023-04-28T21:31:21.760Z,13.29
2023-04-28T21:34:07.619Z,13.19
2023-04-28T21:36:52.702Z,13.20
2023-04-28T21:39:38.058Z,13.51
2023-04-28T21:42:22.954Z,13.23
2023-04-28T21:45:09.541Z,13.14
2023-04-28T21:47:56.033Z,13.01
2023-04-28T21:50:41.394Z,12.93
2023-04-28T21:53:26.753Z,12.87
2023-04-28T21:56:12.018Z,12.74
2023-04-28T21:58:57.300Z,12.69
2023-04-28T22:01:42.717Z,12.65
2023-04-28T22:04:28.782Z,12.58
2023-04-28T22:07:13.930Z,12.47
2023-04-28T22:09:59.174Z,12.45
2023-04-28T22:12:44.423Z,12.40
2023-04-28T22:15:29.629Z,12.31
2023-04-28T22:18:14.435Z,12.27
2023-04-28T22:21:01.061Z,12.18
2023-04-28T22:23:46.305Z,12.20
2023-04-28T22:26:35.187Z,12.14
2023-04-28T22:29:20.699Z,12.07
2023-04-28T22:32:08.298Z,12.06
2023-04-28T22:34:53.309Z,11.92
2023-04-28T22:37:38.972Z,11.93
2023-04-28T22:40:23.925Z,11.87
2023-04-28T22:43:09.064Z,11.79
2023-04-28T22:45:54.413Z,11.81
2023-04-28T22:48:39.704Z,11.75
2023-04-28T22:51:25.442Z,11.68
2023-04-28T22:54:11.151Z,11.65
2023-04-28T22:56:56.120Z,11.57
2023-04-28T22:59:41.909Z,11.53
2023-04-28T23:02:27.049Z,11.44
2023-04-28T23:05:12.666Z,11.40
2023-04-28T23:07:57.868Z,11.37
2023-04-28T23:10:42.933Z,11.33
2023-04-28T23:13:28.084Z,11.24
2023-04-28T23:16:13.517Z,11.19
2023-04-28T23:18:58.465Z,11.16
2023-04-28T23:21:43.797Z,11.12
2023-04-28T23:24:29.105Z,11.08
2023-04-28T23:27:14.210Z,10.94
2023-04-28T23:29:59.471Z,10.98
2023-04-28T23:32:45.447Z,10.93
2023-04-28T23:35:31.980Z,10.86
2023-04-28T23:38:17.277Z,10.82
2023-04-28T23:41:02.396Z,10.73
2023-04-28T23:43:47.634Z,10.82
2023-04-28T23:46:32.987Z,10.69
2023-04-28T23:49:18.634Z,10.83
2023-04-28T23:52:03.977Z,10.79
2023-04-28T23:54:49.077Z,10.65
2023-04-28T23:57:34.293Z,10.70
